sensor_id;sensor_type;location;lat;lon;timestamp;P1;durP1;ratioP1;P2;durP2;ratioP2
39448;SDS011;25151;45.566;9.382;2022-08-01T00:02:12;6.10;;;1.45;;
39448;SDS011;25151;45.566;9.382;2022-08-01T00:05:13;3.15;;;1.40;;
39448;SDS011;25151;45.566;9.382;2022-08-01T00:08:14;5.50;;;1.35;;
39448;SDS011;25151;45.566;9.382;2022-08-01T00:11:14;3.42;;;1.50;;
39448;SDS011;25151;45.566;9.382;2022-08-01T00:14:15;5.00;;;1.58;;
39448;SDS011;25151;45.566;9.382;2022-08-01T00:17:15;6.25;;;1.30;;
39448;SDS011;25151;45.566;9.382;2022-08-01T00:20:17;2.75;;;0.90;;
39448;SDS011;25151;45.566;9.382;2022-08-01T00:23:18;7.32;;;1.58;;
39448;SDS011;25151;45.566;9.382;2022-08-01T00:26:18;7.00;;;1.90;;
39448;SDS011;25151;45.566;9.382;2022-08-01T00:29:20;2.65;;;0.90;;
39448;SDS011;25151;45.566;9.382;2022-08-01T00:32:20;5.18;;;1.65;;
39448;SDS011;25151;45.566;9.382;2022-08-01T00:35:21;6.32;;;1.30;;
39448;SDS011;25151;45.566;9.382;2022-08-01T00:38:21;5.93;;;1.35;;
39448;SDS011;25151;45.566;9.382;2022-08-01T00:41:22;2.08;;;0.90;;
39448;SDS011;25151;45.566;9.382;2022-08-01T00:44:23;4.22;;;1.10;;
39448;SDS011;25151;45.566;9.382;2022-08-01T00:47:23;7.55;;;1.67;;
39448;SDS011;25151;45.566;9.382;2022-08-01T00:50:24;4.50;;;1.05;;
39448;SDS011;25151;45.566;9.382;2022-08-01T00:53:24;2.83;;;1.15;;
39448;SDS011;25151;45.566;9.382;2022-08-01T00:56:25;5.75;;;1.38;;
39448;SDS011;25151;45.566;9.382;2022-08-01T00:59:27;3.67;;;1.40;;
39448;SDS011;25151;45.566;9.382;2022-08-01T01:02:27;4.55;;;1.75;;
39448;SDS011;25151;45.566;9.382;2022-08-01T01:05:28;3.05;;;1.23;;
39448;SDS011;25151;45.566;9.382;2022-08-01T01:08:32;2.75;;;1.45;;
39448;SDS011;25151;45.566;9.382;2022-08-01T01:11:54;7.20;;;1.70;;
39448;SDS011;25151;45.566;9.382;2022-08-01T01:15:06;3.95;;;1.23;;
39448;SDS011;25151;45.566;9.382;2022-08-01T01:21:35;5.88;;;1.30;;
39448;SDS011;25151;45.566;9.382;2022-08-01T01:31:31;3.95;;;1.10;;
39448;SDS011;25151;45.566;9.382;2022-08-01T01:34:42;3.35;;;1.15;;
39448;SDS011;25151;45.566;9.382;2022-08-01T01:37:44;3.05;;;1.42;;
39448;SDS011;25151;45.566;9.382;2022-08-01T01:40:49;3.72;;;1.35;;
39448;SDS011;25151;45.566;9.382;2022-08-01T01:43:51;3.97;;;0.93;;
39448;SDS011;25151;45.566;9.382;2022-08-01T01:46:53;2.65;;;0.90;;
39448;SDS011;25151;45.566;9.382;2022-08-01T01:49:56;1.67;;;1.08;;
39448;SDS011;25151;45.566;9.382;2022-08-01T01:52:59;4.35;;;1.25;;
39448;SDS011;25151;45.566;9.382;2022-08-01T01:56:03;5.18;;;1.50;;
39448;SDS011;25151;45.566;9.382;2022-08-01T01:59:03;3.50;;;1.35;;
39448;SDS011;25151;45.566;9.382;2022-08-01T02:02:05;2.33;;;1.05;;
39448;SDS011;25151;45.566;9.382;2022-08-01T02:05:08;4.28;;;1.27;;
39448;SDS011;25151;45.566;9.382;2022-08-01T02:08:10;3.85;;;1.40;;
39448;SDS011;25151;45.566;9.382;2022-08-01T02:11:14;2.78;;;1.10;;
39448;SDS011;25151;45.566;9.382;2022-08-01T02:14:23;5.68;;;1.20;;
39448;SDS011;25151;45.566;9.382;2022-08-01T02:17:27;2.42;;;0.95;;
39448;SDS011;25151;45.566;9.382;2022-08-01T02:20:29;2.95;;;1.48;;
39448;SDS011;25151;45.566;9.382;2022-08-01T02:23:33;2.95;;;1.33;;
39448;SDS011;25151;45.566;9.382;2022-08-01T02:26:36;2.00;;;1.10;;
39448;SDS011;25151;45.566;9.382;2022-08-01T02:29:42;2.40;;;1.50;;
39448;SDS011;25151;45.566;9.382;2022-08-01T02:32:59;5.53;;;1.50;;
39448;SDS011;25151;45.566;9.382;2022-08-01T02:36:03;5.25;;;2.03;;
39448;SDS011;25151;45.566;9.382;2022-08-01T02:39:08;6.32;;;1.90;;
39448;SDS011;25151;45.566;9.382;2022-08-01T02:42:09;3.20;;;1.70;;
39448;SDS011;25151;45.566;9.382;2022-08-01T02:45:14;3.08;;;2.10;;
39448;SDS011;25151;45.566;9.382;2022-08-01T02:48:17;2.63;;;1.65;;
39448;SDS011;25151;45.566;9.382;2022-08-01T02:51:19;3.85;;;2.10;;
39448;SDS011;25151;45.566;9.382;2022-08-01T02:54:23;2.75;;;2.22;;
39448;SDS011;25151;45.566;9.382;2022-08-01T02:57:26;2.80;;;2.28;;
39448;SDS011;25151;45.566;9.382;2022-08-01T03:00:29;3.03;;;2.08;;
39448;SDS011;25151;45.566;9.382;2022-08-01T03:03:31;3.83;;;2.00;;
39448;SDS011;25151;45.566;9.382;2022-08-01T03:06:32;6.90;;;2.38;;
39448;SDS011;25151;45.566;9.382;2022-08-01T03:09:36;6.53;;;2.45;;
39448;SDS011;25151;45.566;9.382;2022-08-01T03:12:39;5.43;;;1.95;;
39448;SDS011;25151;45.566;9.382;2022-08-01T03:15:41;2.40;;;1.80;;
39448;SDS011;25151;45.566;9.382;2022-08-01T03:18:44;4.65;;;1.70;;
39448;SDS011;25151;45.566;9.382;2022-08-01T03:21:46;2.95;;;1.85;;
39448;SDS011;25151;45.566;9.382;2022-08-01T03:24:49;3.90;;;2.38;;
39448;SDS011;25151;45.566;9.382;2022-08-01T03:27:56;4.80;;;2.17;;
39448;SDS011;25151;45.566;9.382;2022-08-01T03:30:59;3.78;;;1.90;;
39448;SDS011;25151;45.566;9.382;2022-08-01T03:34:02;4.15;;;2.13;;
39448;SDS011;25151;45.566;9.382;2022-08-01T03:37:11;2.25;;;1.50;;
39448;SDS011;25151;45.566;9.382;2022-08-01T03:40:25;4.82;;;1.95;;
39448;SDS011;25151;45.566;9.382;2022-08-01T03:44:10;9.80;;;2.03;;
39448;SDS011;25151;45.566;9.382;2022-08-01T03:47:15;3.22;;;1.65;;
39448;SDS011;25151;45.566;9.382;2022-08-01T03:50:16;2.55;;;1.80;;
39448;SDS011;25151;45.566;9.382;2022-08-01T03:53:23;2.40;;;1.55;;
39448;SDS011;25151;45.566;9.382;2022-08-01T03:56:27;2.75;;;1.92;;
39448;SDS011;25151;45.566;9.382;2022-08-01T03:59:32;3.28;;;2.00;;
39448;SDS011;25151;45.566;9.382;2022-08-01T04:02:36;4.82;;;1.95;;
39448;SDS011;25151;45.566;9.382;2022-08-01T04:05:40;3.08;;;2.08;;
39448;SDS011;25151;45.566;9.382;2022-08-01T04:08:42;2.55;;;1.88;;
39448;SDS011;25151;45.566;9.382;2022-08-01T04:11:43;6.22;;;2.05;;
39448;SDS011;25151;45.566;9.382;2022-08-01T04:14:43;3.15;;;2.03;;
39448;SDS011;25151;45.566;9.382;2022-08-01T04:17:45;6.07;;;2.00;;
39448;SDS011;25151;45.566;9.382;2022-08-01T04:20:46;3.80;;;2.13;;
39448;SDS011;25151;45.566;9.382;2022-08-01T04:23:47;5.80;;;2.20;;
39448;SDS011;25151;45.566;9.382;2022-08-01T04:26:51;3.97;;;2.00;;
39448;SDS011;25151;45.566;9.382;2022-08-01T04:29:52;4.30;;;2.30;;
39448;SDS011;25151;45.566;9.382;2022-08-01T04:32:57;10.05;;;3.17;;
39448;SDS011;25151;45.566;9.382;2022-08-01T04:36:00;6.10;;;2.15;;
39448;SDS011;25151;45.566;9.382;2022-08-01T04:39:04;10.60;;;2.45;;
39448;SDS011;25151;45.566;9.382;2022-08-01T04:42:05;5.75;;;2.03;;
39448;SDS011;25151;45.566;9.382;2022-08-01T04:45:07;2.47;;;1.75;;
39448;SDS011;25151;45.566;9.382;2022-08-01T04:48:08;3.05;;;2.20;;
39448;SDS011;25151;45.566;9.382;2022-08-01T04:51:16;2.90;;;1.80;;
39448;SDS011;25151;45.566;9.382;2022-08-01T04:54:21;2.90;;;2.05;;
39448;SDS011;25151;45.566;9.382;2022-08-01T04:57:22;4.57;;;2.05;;
39448;SDS011;25151;45.566;9.382;2022-08-01T05:00:23;2.63;;;2.00;;
39448;SDS011;25151;45.566;9.382;2022-08-01T05:03:23;4.25;;;2.35;;
39448;SDS011;25151;45.566;9.382;2022-08-01T05:06:24;6.75;;;2.13;;
39448;SDS011;25151;45.566;9.382;2022-08-01T05:09:25;4.88;;;1.80;;
39448;SDS011;25151;45.566;9.382;2022-08-01T05:12:26;6.20;;;1.95;;
39448;SDS011;25151;45.566;9.382;2022-08-01T05:15:26;3.47;;;2.10;;
39448;SDS011;25151;45.566;9.382;2022-08-01T05:18:27;3.22;;;2.00;;
39448;SDS011;25151;45.566;9.382;2022-08-01T05:21:28;4.80;;;2.10;;
39448;SDS011;25151;45.566;9.382;2022-08-01T05:24:28;4.28;;;1.88;;
39448;SDS011;25151;45.566;9.382;2022-08-01T05:27:29;2.55;;;1.80;;
39448;SDS011;25151;45.566;9.382;2022-08-01T05:30:29;3.80;;;1.95;;
39448;SDS011;25151;45.566;9.382;2022-08-01T05:33:30;3.35;;;1.92;;
39448;SDS011;25151;45.566;9.382;2022-08-01T05:36:30;4.55;;;2.67;;
39448;SDS011;25151;45.566;9.382;2022-08-01T05:39:31;5.97;;;1.98;;
39448;SDS011;25151;45.566;9.382;2022-08-01T05:42:32;4.07;;;1.63;;
39448;SDS011;25151;45.566;9.382;2022-08-01T05:45:32;3.55;;;2.08;;
39448;SDS011;25151;45.566;9.382;2022-08-01T05:48:33;3.53;;;1.90;;
39448;SDS011;25151;45.566;9.382;2022-08-01T05:51:33;2.55;;;1.83;;
39448;SDS011;25151;45.566;9.382;2022-08-01T05:54:34;6.30;;;1.60;;
39448;SDS011;25151;45.566;9.382;2022-08-01T05:57:34;5.60;;;2.13;;
39448;SDS011;25151;45.566;9.382;2022-08-01T06:00:35;4.90;;;1.60;;
39448;SDS011;25151;45.566;9.382;2022-08-01T06:03:36;5.03;;;2.10;;
39448;SDS011;25151;45.566;9.382;2022-08-01T06:06:36;3.15;;;1.70;;
39448;SDS011;25151;45.566;9.382;2022-08-01T06:09:37;4.35;;;1.73;;
39448;SDS011;25151;45.566;9.382;2022-08-01T06:12:37;4.45;;;1.60;;
39448;SDS011;25151;45.566;9.382;2022-08-01T06:15:38;10.65;;;2.33;;
39448;SDS011;25151;45.566;9.382;2022-08-01T06:18:38;8.07;;;1.77;;
39448;SDS011;25151;45.566;9.382;2022-08-01T06:21:39;7.20;;;2.30;;
39448;SDS011;25151;45.566;9.382;2022-08-01T06:24:40;9.85;;;2.75;;
39448;SDS011;25151;45.566;9.382;2022-08-01T06:27:40;7.95;;;2.38;;
39448;SDS011;25151;45.566;9.382;2022-08-01T06:30:41;10.82;;;2.42;;
39448;SDS011;25151;45.566;9.382;2022-08-01T06:33:44;13.40;;;2.63;;
39448;SDS011;25151;45.566;9.382;2022-08-01T06:36:45;14.25;;;3.70;;
39448;SDS011;25151;45.566;9.382;2022-08-01T06:39:45;9.45;;;3.00;;
39448;SDS011;25151;45.566;9.382;2022-08-01T06:42:46;12.00;;;2.40;;
39448;SDS011;25151;45.566;9.382;2022-08-01T06:45:48;11.23;;;1.95;;
39448;SDS011;25151;45.566;9.382;2022-08-01T06:48:48;7.97;;;2.53;;
39448;SDS011;25151;45.566;9.382;2022-08-01T06:51:49;9.05;;;2.60;;
39448;SDS011;25151;45.566;9.382;2022-08-01T06:54:50;9.10;;;2.10;;
39448;SDS011;25151;45.566;9.382;2022-08-01T06:57:51;4.20;;;1.75;;
39448;SDS011;25151;45.566;9.382;2022-08-01T07:00:52;4.47;;;2.20;;
39448;SDS011;25151;45.566;9.382;2022-08-01T07:03:53;4.78;;;2.17;;
39448;SDS011;25151;45.566;9.382;2022-08-01T07:06:54;9.27;;;1.95;;
39448;SDS011;25151;45.566;9.382;2022-08-01T07:09:55;9.52;;;2.30;;
39448;SDS011;25151;45.566;9.382;2022-08-01T07:12:56;7.72;;;2.03;;
39448;SDS011;25151;45.566;9.382;2022-08-01T07:15:56;8.00;;;2.17;;
39448;SDS011;25151;45.566;9.382;2022-08-01T07:18:57;6.05;;;1.85;;
39448;SDS011;25151;45.566;9.382;2022-08-01T07:21:58;12.35;;;2.70;;
39448;SDS011;25151;45.566;9.382;2022-08-01T07:24:58;4.30;;;1.92;;
39448;SDS011;25151;45.566;9.382;2022-08-01T07:27:59;5.43;;;2.00;;
39448;SDS011;25151;45.566;9.382;2022-08-01T07:30:59;5.85;;;1.83;;
39448;SDS011;25151;45.566;9.382;2022-08-01T07:34:00;7.88;;;2.20;;
39448;SDS011;25151;45.566;9.382;2022-08-01T07:37:01;7.70;;;2.58;;
39448;SDS011;25151;45.566;9.382;2022-08-01T07:40:02;8.48;;;2.53;;
39448;SDS011;25151;45.566;9.382;2022-08-01T07:43:04;7.85;;;1.90;;
39448;SDS011;25151;45.566;9.382;2022-08-01T07:46:05;7.90;;;2.47;;
39448;SDS011;25151;45.566;9.382;2022-08-01T07:49:06;7.05;;;2.65;;
39448;SDS011;25151;45.566;9.382;2022-08-01T07:52:08;3.47;;;1.95;;
39448;SDS011;25151;45.566;9.382;2022-08-01T07:55:09;8.13;;;2.22;;
39448;SDS011;25151;45.566;9.382;2022-08-01T07:58:13;7.63;;;2.90;;
39448;SDS011;25151;45.566;9.382;2022-08-01T08:01:14;6.70;;;2.63;;
39448;SDS011;25151;45.566;9.382;2022-08-01T08:04:15;10.32;;;2.42;;
39448;SDS011;25151;45.566;9.382;2022-08-01T08:07:16;8.73;;;2.75;;
39448;SDS011;25151;45.566;9.382;2022-08-01T08:10:17;6.90;;;2.22;;
39448;SDS011;25151;45.566;9.382;2022-08-01T08:13:23;10.57;;;2.22;;
39448;SDS011;25151;45.566;9.382;2022-08-01T08:16:24;4.32;;;1.98;;
39448;SDS011;25151;45.566;9.382;2022-08-01T08:19:28;3.95;;;2.20;;
39448;SDS011;25151;45.566;9.382;2022-08-01T08:22:29;5.55;;;2.28;;
39448;SDS011;25151;45.566;9.382;2022-08-01T08:25:32;6.47;;;2.53;;
39448;SDS011;25151;45.566;9.382;2022-08-01T08:28:36;8.80;;;2.28;;
39448;SDS011;25151;45.566;9.382;2022-08-01T08:31:39;9.63;;;2.60;;
39448;SDS011;25151;45.566;9.382;2022-08-01T08:34:40;8.70;;;2.08;;
39448;SDS011;25151;45.566;9.382;2022-08-01T08:37:41;6.25;;;1.92;;
39448;SDS011;25151;45.566;9.382;2022-08-01T08:40:45;7.50;;;1.98;;
39448;SDS011;25151;45.566;9.382;2022-08-01T08:43:49;7.22;;;2.47;;
39448;SDS011;25151;45.566;9.382;2022-08-01T08:46:51;5.47;;;2.00;;
39448;SDS011;25151;45.566;9.382;2022-08-01T08:49:53;5.68;;;1.70;;
39448;SDS011;25151;45.566;9.382;2022-08-01T08:52:55;4.20;;;1.92;;
39448;SDS011;25151;45.566;9.382;2022-08-01T08:56:00;6.10;;;2.08;;
39448;SDS011;25151;45.566;9.382;2022-08-01T08:59:02;5.03;;;2.10;;
39448;SDS011;25151;45.566;9.382;2022-08-01T09:02:05;9.13;;;2.05;;
39448;SDS011;25151;45.566;9.382;2022-08-01T09:05:09;6.07;;;2.17;;
39448;SDS011;25151;45.566;9.382;2022-08-01T09:08:11;3.90;;;2.28;;
39448;SDS011;25151;45.566;9.382;2022-08-01T09:11:12;8.52;;;2.30;;
39448;SDS011;25151;45.566;9.382;2022-08-01T09:14:14;5.15;;;1.88;;
39448;SDS011;25151;45.566;9.382;2022-08-01T09:17:23;6.88;;;1.98;;
39448;SDS011;25151;45.566;9.382;2022-08-01T09:20:27;5.00;;;1.80;;
39448;SDS011;25151;45.566;9.382;2022-08-01T09:23:36;7.45;;;1.70;;
39448;SDS011;25151;45.566;9.382;2022-08-01T09:26:59;4.13;;;2.10;;
39448;SDS011;25151;45.566;9.382;2022-08-01T09:30:11;7.00;;;1.88;;
39448;SDS011;25151;45.566;9.382;2022-08-01T09:33:14;5.18;;;2.00;;
39448;SDS011;25151;45.566;9.382;2022-08-01T09:36:18;6.18;;;2.05;;
39448;SDS011;25151;45.566;9.382;2022-08-01T09:39:31;3.58;;;1.50;;
39448;SDS011;25151;45.566;9.382;2022-08-01T09:42:33;5.68;;;1.75;;
39448;SDS011;25151;45.566;9.382;2022-08-01T09:45:37;4.78;;;1.67;;
39448;SDS011;25151;45.566;9.382;2022-08-01T09:52:17;4.28;;;1.60;;
39448;SDS011;25151;45.566;9.382;2022-08-01T09:55:27;4.72;;;2.10;;
39448;SDS011;25151;45.566;9.382;2022-08-01T09:58:28;9.50;;;1.85;;
39448;SDS011;25151;45.566;9.382;2022-08-01T10:01:49;6.38;;;1.85;;
39448;SDS011;25151;45.566;9.382;2022-08-01T10:04:50;7.65;;;1.98;;
39448;SDS011;25151;45.566;9.382;2022-08-01T10:07:56;6.45;;;1.83;;
39448;SDS011;25151;45.566;9.382;2022-08-01T10:11:09;7.53;;;1.95;;
39448;SDS011;25151;45.566;9.382;2022-08-01T10:14:11;10.25;;;1.90;;
39448;SDS011;25151;45.566;9.382;2022-08-01T10:17:17;7.90;;;1.83;;
39448;SDS011;25151;45.566;9.382;2022-08-01T10:20:20;4.05;;;1.60;;
39448;SDS011;25151;45.566;9.382;2022-08-01T10:23:22;5.57;;;1.83;;
39448;SDS011;25151;45.566;9.382;2022-08-01T10:26:32;7.35;;;1.92;;
39448;SDS011;25151;45.566;9.382;2022-08-01T10:29:37;7.30;;;1.70;;
39448;SDS011;25151;45.566;9.382;2022-08-01T10:32:50;4.18;;;1.45;;
39448;SDS011;25151;45.566;9.382;2022-08-01T10:36:02;6.38;;;1.98;;
39448;SDS011;25151;45.566;9.382;2022-08-01T10:39:03;8.30;;;1.70;;
39448;SDS011;25151;45.566;9.382;2022-08-01T10:42:06;4.70;;;1.63;;
39448;SDS011;25151;45.566;9.382;2022-08-01T10:45:12;4.50;;;2.20;;
39448;SDS011;25151;45.566;9.382;2022-08-01T10:48:20;3.53;;;1.58;;
39448;SDS011;25151;45.566;9.382;2022-08-01T10:51:27;6.13;;;1.60;;
39448;SDS011;25151;45.566;9.382;2022-08-01T10:54:28;6.15;;;1.60;;
39448;SDS011;25151;45.566;9.382;2022-08-01T10:57:42;5.05;;;1.67;;
39448;SDS011;25151;45.566;9.382;2022-08-01T11:00:46;5.95;;;1.48;;
39448;SDS011;25151;45.566;9.382;2022-08-01T11:07:17;6.18;;;1.65;;
39448;SDS011;25151;45.566;9.382;2022-08-01T11:10:27;6.07;;;2.05;;
39448;SDS011;25151;45.566;9.382;2022-08-01T11:20:32;5.40;;;1.52;;
39448;SDS011;25151;45.566;9.382;2022-08-01T11:23:46;4.30;;;1.63;;
39448;SDS011;25151;45.566;9.382;2022-08-01T11:27:31;5.90;;;1.55;;
39448;SDS011;25151;45.566;9.382;2022-08-01T11:30:22;5.78;;;1.52;;
39448;SDS011;25151;45.566;9.382;2022-08-01T11:36:42;8.40;;;1.65;;
39448;SDS011;25151;45.566;9.382;2022-08-01T11:39:42;7.28;;;1.40;;
39448;SDS011;25151;45.566;9.382;2022-08-01T11:42:43;6.78;;;1.80;;
39448;SDS011;25151;45.566;9.382;2022-08-01T11:45:47;4.78;;;1.48;;
39448;SDS011;25151;45.566;9.382;2022-08-01T11:48:48;10.00;;;1.95;;
39448;SDS011;25151;45.566;9.382;2022-08-01T11:52:30;7.60;;;1.98;;
39448;SDS011;25151;45.566;9.382;2022-08-01T11:55:36;4.70;;;1.35;;
39448;SDS011;25151;45.566;9.382;2022-08-01T11:58:37;4.68;;;1.45;;
39448;SDS011;25151;45.566;9.382;2022-08-01T12:01:37;3.55;;;1.30;;
39448;SDS011;25151;45.566;9.382;2022-08-01T12:04:55;4.75;;;1.63;;
39448;SDS011;25151;45.566;9.382;2022-08-01T12:08:05;4.65;;;1.40;;
39448;SDS011;25151;45.566;9.382;2022-08-01T12:11:06;5.32;;;1.50;;
39448;SDS011;25151;45.566;9.382;2022-08-01T12:14:06;3.25;;;1.35;;
39448;SDS011;25151;45.566;9.382;2022-08-01T12:17:07;5.45;;;1.45;;
39448;SDS011;25151;45.566;9.382;2022-08-01T12:20:09;5.20;;;1.60;;
39448;SDS011;25151;45.566;9.382;2022-08-01T12:23:12;7.05;;;1.50;;
39448;SDS011;25151;45.566;9.382;2022-08-01T12:26:14;4.60;;;1.55;;
39448;SDS011;25151;45.566;9.382;2022-08-01T12:32:41;2.05;;;1.17;;
39448;SDS011;25151;45.566;9.382;2022-08-01T12:35:44;2.83;;;1.70;;
39448;SDS011;25151;45.566;9.382;2022-08-01T12:38:45;2.75;;;1.35;;
39448;SDS011;25151;45.566;9.382;2022-08-01T12:41:53;3.78;;;1.80;;
39448;SDS011;25151;45.566;9.382;2022-08-01T12:44:53;6.85;;;1.50;;
39448;SDS011;25151;45.566;9.382;2022-08-01T12:47:55;7.03;;;1.02;;
39448;SDS011;25151;45.566;9.382;2022-08-01T12:50:58;2.17;;;1.20;;
39448;SDS011;25151;45.566;9.382;2022-08-01T12:54:01;2.70;;;1.50;;
39448;SDS011;25151;45.566;9.382;2022-08-01T12:57:02;3.45;;;1.70;;
39448;SDS011;25151;45.566;9.382;2022-08-01T13:00:09;6.55;;;1.77;;
39448;SDS011;25151;45.566;9.382;2022-08-01T13:03:18;2.83;;;1.58;;
39448;SDS011;25151;45.566;9.382;2022-08-01T13:06:20;4.35;;;1.58;;
39448;SDS011;25151;45.566;9.382;2022-08-01T13:09:21;2.45;;;1.33;;
39448;SDS011;25151;45.566;9.382;2022-08-01T13:12:21;3.28;;;1.50;;
39448;SDS011;25151;45.566;9.382;2022-08-01T13:15:28;3.65;;;1.40;;
39448;SDS011;25151;45.566;9.382;2022-08-01T13:18:34;4.13;;;1.38;;
39448;SDS011;25151;45.566;9.382;2022-08-01T13:21:36;3.67;;;1.58;;
39448;SDS011;25151;45.566;9.382;2022-08-01T13:24:38;2.50;;;1.20;;
39448;SDS011;25151;45.566;9.382;2022-08-01T13:27:42;5.20;;;1.75;;
39448;SDS011;25151;45.566;9.382;2022-08-01T13:31:18;3.45;;;1.55;;
39448;SDS011;25151;45.566;9.382;2022-08-01T13:34:12;4.80;;;1.70;;
39448;SDS011;25151;45.566;9.382;2022-08-01T13:37:13;4.30;;;1.48;;
39448;SDS011;25151;45.566;9.382;2022-08-01T13:40:22;2.85;;;1.08;;
39448;SDS011;25151;45.566;9.382;2022-08-01T13:43:24;6.78;;;1.73;;
39448;SDS011;25151;45.566;9.382;2022-08-01T13:46:24;2.97;;;1.38;;
39448;SDS011;25151;45.566;9.382;2022-08-01T13:49:25;5.18;;;1.80;;
39448;SDS011;25151;45.566;9.382;2022-08-01T13:52:25;2.85;;;1.35;;
39448;SDS011;25151;45.566;9.382;2022-08-01T13:55:26;2.72;;;1.23;;
39448;SDS011;25151;45.566;9.382;2022-08-01T13:58:27;4.45;;;1.25;;
39448;SDS011;25151;45.566;9.382;2022-08-01T14:01:28;4.35;;;1.40;;
39448;SDS011;25151;45.566;9.382;2022-08-01T14:04:29;5.30;;;1.58;;
39448;SDS011;25151;45.566;9.382;2022-08-01T14:07:29;2.75;;;1.35;;
39448;SDS011;25151;45.566;9.382;2022-08-01T14:10:30;3.67;;;1.20;;
39448;SDS011;25151;45.566;9.382;2022-08-01T14:13:31;2.70;;;1.10;;
39448;SDS011;25151;45.566;9.382;2022-08-01T14:16:34;2.13;;;0.93;;
39448;SDS011;25151;45.566;9.382;2022-08-01T14:19:39;4.07;;;1.45;;
39448;SDS011;25151;45.566;9.382;2022-08-01T14:22:39;3.38;;;1.13;;
39448;SDS011;25151;45.566;9.382;2022-08-01T14:25:40;4.53;;;1.77;;
39448;SDS011;25151;45.566;9.382;2022-08-01T14:28:41;2.80;;;1.20;;
39448;SDS011;25151;45.566;9.382;2022-08-01T14:31:42;2.38;;;1.10;;
39448;SDS011;25151;45.566;9.382;2022-08-01T14:34:42;2.72;;;1.73;;
39448;SDS011;25151;45.566;9.382;2022-08-01T14:37:43;4.53;;;1.20;;
39448;SDS011;25151;45.566;9.382;2022-08-01T14:40:44;5.35;;;1.30;;
39448;SDS011;25151;45.566;9.382;2022-08-01T14:43:46;4.57;;;1.38;;
39448;SDS011;25151;45.566;9.382;2022-08-01T14:46:50;2.00;;;0.98;;
39448;SDS011;25151;45.566;9.382;2022-08-01T14:49:51;3.95;;;1.52;;
39448;SDS011;25151;45.566;9.382;2022-08-01T14:52:51;2.47;;;1.00;;
39448;SDS011;25151;45.566;9.382;2022-08-01T14:55:53;3.22;;;1.38;;
39448;SDS011;25151;45.566;9.382;2022-08-01T14:58:54;2.95;;;1.58;;
39448;SDS011;25151;45.566;9.382;2022-08-01T15:02:03;2.53;;;1.30;;
39448;SDS011;25151;45.566;9.382;2022-08-01T15:05:06;2.92;;;1.27;;
39448;SDS011;25151;45.566;9.382;2022-08-01T15:08:08;2.80;;;1.15;;
39448;SDS011;25151;45.566;9.382;2022-08-01T15:11:08;3.50;;;1.30;;
39448;SDS011;25151;45.566;9.382;2022-08-01T15:14:09;3.13;;;1.20;;
39448;SDS011;25151;45.566;9.382;2022-08-01T15:17:29;4.32;;;1.20;;
39448;SDS011;25151;45.566;9.382;2022-08-01T15:20:32;4.28;;;1.40;;
39448;SDS011;25151;45.566;9.382;2022-08-01T15:23:33;4.70;;;1.33;;
39448;SDS011;25151;45.566;9.382;2022-08-01T15:26:33;3.00;;;1.15;;
39448;SDS011;25151;45.566;9.382;2022-08-01T15:29:34;3.45;;;1.15;;
39448;SDS011;25151;45.566;9.382;2022-08-01T15:32:34;5.95;;;1.40;;
39448;SDS011;25151;45.566;9.382;2022-08-01T15:35:36;2.78;;;1.27;;
39448;SDS011;25151;45.566;9.382;2022-08-01T15:38:40;3.67;;;0.98;;
39448;SDS011;25151;45.566;9.382;2022-08-01T15:41:41;4.47;;;1.20;;
39448;SDS011;25151;45.566;9.382;2022-08-01T15:44:43;2.95;;;1.20;;
39448;SDS011;25151;45.566;9.382;2022-08-01T15:47:44;3.25;;;1.20;;
39448;SDS011;25151;45.566;9.382;2022-08-01T15:50:45;2.38;;;1.20;;
39448;SDS011;25151;45.566;9.382;2022-08-01T15:53:46;4.55;;;1.23;;
39448;SDS011;25151;45.566;9.382;2022-08-01T15:56:51;2.67;;;1.10;;
39448;SDS011;25151;45.566;9.382;2022-08-01T15:59:51;2.47;;;1.20;;
39448;SDS011;25151;45.566;9.382;2022-08-01T16:02:52;3.00;;;1.10;;
39448;SDS011;25151;45.566;9.382;2022-08-01T16:05:54;3.95;;;1.10;;
39448;SDS011;25151;45.566;9.382;2022-08-01T16:08:55;2.20;;;0.90;;
39448;SDS011;25151;45.566;9.382;2022-08-01T16:11:59;2.88;;;1.40;;
39448;SDS011;25151;45.566;9.382;2022-08-01T16:15:03;6.65;;;1.17;;
39448;SDS011;25151;45.566;9.382;2022-08-01T16:18:04;2.45;;;1.15;;
39448;SDS011;25151;45.566;9.382;2022-08-01T16:21:09;4.82;;;1.00;;
39448;SDS011;25151;45.566;9.382;2022-08-01T16:24:12;1.77;;;1.08;;
39448;SDS011;25151;45.566;9.382;2022-08-01T16:27:15;2.72;;;1.20;;
39448;SDS011;25151;45.566;9.382;2022-08-01T16:30:17;3.08;;;0.85;;
39448;SDS011;25151;45.566;9.382;2022-08-01T16:33:18;5.63;;;1.13;;
39448;SDS011;25151;45.566;9.382;2022-08-01T16:36:19;6.28;;;1.20;;
39448;SDS011;25151;45.566;9.382;2022-08-01T16:39:20;2.25;;;1.17;;
39448;SDS011;25151;45.566;9.382;2022-08-01T16:42:23;1.13;;;0.98;;
39448;SDS011;25151;45.566;9.382;2022-08-01T16:45:24;4.70;;;1.20;;
39448;SDS011;25151;45.566;9.382;2022-08-01T16:48:25;2.40;;;1.05;;
39448;SDS011;25151;45.566;9.382;2022-08-01T16:51:26;3.60;;;1.10;;
39448;SDS011;25151;45.566;9.382;2022-08-01T16:54:26;2.58;;;1.10;;
39448;SDS011;25151;45.566;9.382;2022-08-01T16:57:29;2.05;;;1.00;;
39448;SDS011;25151;45.566;9.382;2022-08-01T17:00:36;2.58;;;1.00;;
39448;SDS011;25151;45.566;9.382;2022-08-01T17:03:39;3.70;;;1.00;;
39448;SDS011;25151;45.566;9.382;2022-08-01T17:06:39;2.25;;;1.30;;
39448;SDS011;25151;45.566;9.382;2022-08-01T17:09:40;2.15;;;1.10;;
39448;SDS011;25151;45.566;9.382;2022-08-01T17:12:41;3.05;;;1.05;;
39448;SDS011;25151;45.566;9.382;2022-08-01T17:15:41;5.60;;;1.40;;
39448;SDS011;25151;45.566;9.382;2022-08-01T17:18:42;5.20;;;1.13;;
39448;SDS011;25151;45.566;9.382;2022-08-01T17:21:43;2.13;;;1.38;;
39448;SDS011;25151;45.566;9.382;2022-08-01T17:24:43;4.00;;;1.10;;
39448;SDS011;25151;45.566;9.382;2022-08-01T17:27:44;1.75;;;1.00;;
39448;SDS011;25151;45.566;9.382;2022-08-01T17:30:44;4.68;;;1.20;;
39448;SDS011;25151;45.566;9.382;2022-08-01T17:33:45;3.72;;;1.15;;
39448;SDS011;25151;45.566;9.382;2022-08-01T17:36:48;2.42;;;1.10;;
39448;SDS011;25151;45.566;9.382;2022-08-01T17:39:49;3.60;;;1.30;;
39448;SDS011;25151;45.566;9.382;2022-08-01T17:42:50;9.80;;;1.60;;
39448;SDS011;25151;45.566;9.382;2022-08-01T17:45:51;4.43;;;1.13;;
39448;SDS011;25151;45.566;9.382;2022-08-01T17:48:52;6.03;;;1.38;;
39448;SDS011;25151;45.566;9.382;2022-08-01T17:51:53;6.50;;;1.10;;
39448;SDS011;25151;45.566;9.382;2022-08-01T17:54:54;2.88;;;1.25;;
39448;SDS011;25151;45.566;9.382;2022-08-01T17:57:56;5.78;;;1.88;;
39448;SDS011;25151;45.566;9.382;2022-08-01T18:00:56;4.88;;;1.20;;
39448;SDS011;25151;45.566;9.382;2022-08-01T18:03:58;4.65;;;1.27;;
39448;SDS011;25151;45.566;9.382;2022-08-01T18:06:59;20.35;;;2.40;;
39448;SDS011;25151;45.566;9.382;2022-08-01T18:10:00;4.45;;;1.10;;
39448;SDS011;25151;45.566;9.382;2022-08-01T18:13:00;3.20;;;1.20;;
39448;SDS011;25151;45.566;9.382;2022-08-01T18:16:02;5.22;;;1.17;;
39448;SDS011;25151;45.566;9.382;2022-08-01T18:19:05;3.92;;;1.02;;
39448;SDS011;25151;45.566;9.382;2022-08-01T18:22:06;6.45;;;1.80;;
39448;SDS011;25151;45.566;9.382;2022-08-01T18:25:07;7.40;;;1.20;;
39448;SDS011;25151;45.566;9.382;2022-08-01T18:28:08;4.20;;;1.27;;
39448;SDS011;25151;45.566;9.382;2022-08-01T18:31:09;3.35;;;1.35;;
39448;SDS011;25151;45.566;9.382;2022-08-01T18:34:12;4.32;;;1.17;;
39448;SDS011;25151;45.566;9.382;2022-08-01T18:37:12;3.95;;;0.90;;
39448;SDS011;25151;45.566;9.382;2022-08-01T18:40:15;7.32;;;1.40;;
39448;SDS011;25151;45.566;9.382;2022-08-01T18:43:16;5.63;;;1.10;;
39448;SDS011;25151;45.566;9.382;2022-08-01T18:46:16;3.88;;;1.45;;
39448;SDS011;25151;45.566;9.382;2022-08-01T18:49:17;5.55;;;1.35;;
39448;SDS011;25151;45.566;9.382;2022-08-01T18:52:19;2.38;;;1.00;;
39448;SDS011;25151;45.566;9.382;2022-08-01T18:55:19;2.67;;;1.20;;